Time;durP1;ratioP1;P1;durP2;ratioP2;P2;SDS_P1;SDS_P2;PMS_P1;PMS_P2;Temp;Humidity;BMP_temperature;BMP_pressure;BME280_temperature;BME280_humidity;BME280_pressure;Samples;Min_cycle;Max_cycle;Signal;HPM_P1;HPM_P2
2023/05/14 00:01:46;;;;;;;14.83;11.03;;;12.40;99.90;;;;;;4909989;29;20232;-53
2023/05/14 00:04:13;;;;;;;12.63;9.87;;;12.30;99.90;;;;;;4911615;29;20248;-53
2023/05/14 00:06:40;;;;;;;11.07;9.37;;;12.30;99.90;;;;;;4914215;29;20213;-54
2023/05/14 00:09:07;;;;;;;9.37;8.57;;;12.30;99.90;;;;;;4913567;29;20746;-53
2023/05/14 00:11:35;;;;;;;7.83;7.13;;;12.30;99.90;;;;;;4912860;29;20575;-53
2023/05/14 00:14:02;;;;;;;11.57;9.60;;;12.30;99.90;;;;;;4909915;29;20225;-53
2023/05/14 00:16:29;;;;;;;9.00;8.10;;;12.30;99.90;;;;;;4912099;29;20285;-54
2023/05/14 00:18:56;;;;;;;11.13;9.20;;;12.40;99.90;;;;;;4908703;29;20261;-53
2023/05/14 00:21:23;;;;;;;11.87;9.93;;;12.40;99.90;;;;;;4909030;29;20626;-53
2023/05/14 00:23:50;;;;;;;11.90;9.47;;;12.40;99.90;;;;;;4902612;29;20650;-53
2023/05/14 00:26:17;;;;;;;9.97;8.93;;;12.30;99.90;;;;;;4906716;29;20203;-53
2023/05/14 00:28:45;;;;;;;9.77;8.87;;;12.30;99.90;;;;;;4917326;29;20210;-53
2023/05/14 00:31:12;;;;;;;8.73;8.03;;;12.30;99.90;;;;;;4916203;29;20209;-53
2023/05/14 00:33:39;;;;;;;9.10;8.30;;;12.40;99.90;;;;;;4911558;29;20309;-53
2023/05/14 00:36:07;;;;;;;7.77;7.20;;;12.40;99.90;;;;;;4915309;29;20569;-54
2023/05/14 00:38:34;;;;;;;8.70;7.90;;;12.40;99.90;;;;;;4917100;29;20209;-53
2023/05/14 00:41:02;;;;;;;8.00;7.40;;;12.30;99.90;;;;;;4917240;29;20256;-53
2023/05/14 00:43:29;;;;;;;8.87;8.17;;;12.30;99.90;;;;;;4914934;29;20233;-53
2023/05/14 00:45:57;;;;;;;9.57;8.87;;;12.20;99.90;;;;;;4915340;29;20691;-53
2023/05/14 00:48:25;;;;;;;9.53;8.67;;;12.30;99.90;;;;;;4916071;29;20270;-53
2023/05/14 00:50:52;;;;;;;8.33;7.73;;;12.30;99.90;;;;;;4917111;29;20207;-53
2023/05/14 00:53:20;;;;;;;10.13;8.03;;;12.30;99.90;;;;;;4912102;29;20232;-53
2023/05/14 00:55:48;;;;;;;8.07;7.57;;;12.30;99.90;;;;;;4911587;29;20203;-53
2023/05/14 00:58:15;;;;;;;9.03;8.43;;;12.40;99.90;;;;;;4915151;29;20205;-53
2023/05/14 01:00:42;;;;;;;8.93;8.23;;;12.30;99.90;;;;;;4915372;29;20266;-53
2023/05/14 01:03:11;;;;;;;9.47;8.67;;;12.30;99.90;;;;;;4911796;29;20290;-53
2023/05/14 01:05:47;;;;;;;8.97;8.27;;;12.30;99.90;;;;;;4916865;29;20612;-53
2023/05/14 01:08:22;;;;;;;8.47;7.87;;;12.20;99.90;;;;;;4911851;29;20267;-53
2023/05/14 01:10:53;;;;;;;9.03;8.37;;;12.20;99.90;;;;;;4916070;29;20451;-53
2023/05/14 01:13:27;;;;;;;7.47;6.97;;;12.20;99.90;;;;;;4911918;29;20277;-53
2023/05/14 01:15:58;;;;;;;7.77;7.17;;;12.30;99.90;;;;;;4916521;29;20260;-53
2023/05/14 01:18:29;;;;;;;7.73;7.13;;;12.30;99.90;;;;;;4915619;29;20214;-53
2023/05/14 01:20:56;;;;;;;9.47;8.50;;;12.30;99.90;;;;;;4916546;29;20694;-53
2023/05/14 01:23:24;;;;;;;8.67;8.07;;;12.30;99.90;;;;;;4911969;29;20233;-53
2023/05/14 01:25:51;;;;;;;7.80;7.30;;;12.30;99.90;;;;;;4916488;29;20264;-53
2023/05/14 01:28:20;;;;;;;8.27;7.57;;;12.30;99.90;;;;;;4916055;29;21010;-53
2023/05/14 01:30:56;;;;;;;8.93;8.13;;;12.30;99.90;;;;;;4911218;29;20219;-53
2023/05/14 01:33:27;;;;;;;8.93;8.00;;;12.30;99.90;;;;;;4911111;29;20293;-54
2023/05/14 01:35:57;;;;;;;8.93;8.33;;;12.30;99.90;;;;;;4916444;29;20261;-53
2023/05/14 01:38:29;;;;;;;9.73;8.97;;;12.20;99.90;;;;;;4916332;29;20213;-53
2023/05/14 01:40:57;;;;;;;9.00;8.30;;;12.30;99.90;;;;;;4916584;29;20210;-53
2023/05/14 01:43:24;;;;;;;8.13;7.43;;;12.30;99.90;;;;;;4910893;29;20238;-53
2023/05/14 01:45:51;;;;;;;8.00;7.40;;;12.30;99.90;;;;;;4916127;29;20630;-53
2023/05/14 01:48:18;;;;;;;7.77;7.27;;;12.30;99.90;;;;;;4916308;29;20210;-53
2023/05/14 01:50:45;;;;;;;8.63;7.83;;;12.20;99.90;;;;;;4916198;29;20207;-53
2023/05/14 01:53:12;;;;;;;7.50;6.90;;;12.30;99.90;;;;;;4909413;29;20284;-53
2023/05/14 01:55:40;;;;;;;7.37;6.77;;;12.30;99.90;;;;;;4912877;29;20262;-53
2023/05/14 01:58:07;;;;;;;6.63;6.23;;;12.30;99.90;;;;;;4916034;29;20202;-53
2023/05/14 02:00:34;;;;;;;6.40;5.90;;;12.30;99.90;;;;;;4915772;29;20206;-53
2023/05/14 02:03:01;;;;;;;7.03;6.43;;;12.30;99.90;;;;;;4912231;29;20289;-54
2023/05/14 02:05:28;;;;;;;6.67;6.17;;;12.20;99.90;;;;;;4915777;29;20209;-53
2023/05/14 02:07:55;;;;;;;6.50;5.90;;;12.20;99.90;;;;;;4912365;29;20213;-53
2023/05/14 02:10:22;;;;;;;7.60;7.00;;;12.20;99.90;;;;;;4914794;29;20675;-53
2023/05/14 02:12:51;;;;;;;6.77;6.30;;;12.10;99.90;;;;;;4912436;29;20649;-53
2023/05/14 02:15:18;;;;;;;6.50;6.10;;;12.20;99.90;;;;;;4914610;29;20250;-53
2023/05/14 02:17:45;;;;;;;7.53;7.00;;;12.20;99.90;;;;;;4910592;29;20210;-53
2023/05/14 02:20:13;;;;;;;6.63;6.23;;;12.20;99.90;;;;;;4912755;29;20598;-53
2023/05/14 02:22:44;;;;;;;6.80;6.30;;;12.10;99.90;;;;;;4905971;29;20655;-53
2023/05/14 02:25:11;;;;;;;7.07;6.57;;;12.00;99.90;;;;;;4915514;29;20209;-53
2023/05/14 02:27:38;;;;;;;7.03;6.53;;;12.10;99.90;;;;;;4915767;29;20209;-53
2023/05/14 02:30:08;;;;;;;7.03;6.30;;;12.10;99.90;;;;;;4915709;29;20205;-53
2023/05/14 02:32:37;;;;;;;7.30;6.73;;;12.10;99.90;;;;;;4907113;29;20237;-53
2023/05/14 02:35:05;;;;;;;7.03;6.57;;;12.10;99.90;;;;;;4912969;29;20209;-53
2023/05/14 02:37:33;;;;;;;6.47;5.97;;;12.10;99.90;;;;;;4915752;29;20221;-53
2023/05/14 02:40:00;;;;;;;7.03;6.53;;;12.10;99.90;;;;;;4913367;29;20308;-53
2023/05/14 02:42:27;;;;;;;8.33;7.53;;;12.00;99.90;;;;;;4912425;29;20648;-53
2023/05/14 02:44:54;;;;;;;8.17;7.37;;;12.00;99.90;;;;;;4913317;29;20206;-53
2023/05/14 02:47:22;;;;;;;7.93;7.27;;;12.00;99.90;;;;;;4914280;29;20206;-53
2023/05/14 02:49:49;;;;;;;8.00;7.40;;;11.90;99.90;;;;;;4915416;29;20317;-53
2023/05/14 02:52:16;;;;;;;7.87;7.27;;;12.00;99.90;;;;;;4913884;29;20304;-54
2023/05/14 02:54:43;;;;;;;7.43;6.80;;;11.90;99.90;;;;;;4915347;29;20209;-53
2023/05/14 02:57:10;;;;;;;7.90;7.30;;;11.90;99.90;;;;;;4912430;29;20206;-53
2023/05/14 02:59:37;;;;;;;8.10;7.60;;;11.90;99.90;;;;;;4915343;29;20201;-53
2023/05/14 03:02:04;;;;;;;6.77;6.33;;;11.90;99.90;;;;;;4912824;29;20308;-53
2023/05/14 03:04:33;;;;;;;7.67;7.10;;;11.90;99.90;;;;;;4915247;29;20202;-53
2023/05/14 03:07:00;;;;;;;7.67;7.07;;;11.90;99.90;;;;;;4907733;29;20675;-53
2023/05/14 03:09:27;;;;;;;7.23;6.73;;;11.90;99.90;;;;;;4915159;29;20648;-53
2023/05/14 03:11:54;;;;;;;9.13;8.43;;;11.90;99.90;;;;;;4915398;29;20873;-53
2023/05/14 03:14:21;;;;;;;7.37;6.83;;;11.90;99.90;;;;;;4918148;29;20266;-53
2023/05/14 03:16:48;;;;;;;7.30;6.80;;;11.90;99.90;;;;;;4919147;29;20276;-53
2023/05/14 03:19:15;;;;;;;7.43;6.87;;;11.90;99.90;;;;;;4914909;29;20237;-53
2023/05/14 03:21:44;;;;;;;8.40;7.70;;;11.90;99.90;;;;;;4918673;29;20249;-53
2023/05/14 03:24:11;;;;;;;8.73;8.00;;;11.90;99.90;;;;;;4916800;29;20216;-53
2023/05/14 03:26:38;;;;;;;9.60;8.80;;;11.90;99.90;;;;;;4918800;29;20266;-53
2023/05/14 03:29:05;;;;;;;8.77;7.97;;;11.90;99.90;;;;;;4918597;29;20212;-53
2023/05/14 03:31:32;;;;;;;7.63;7.03;;;11.90;99.90;;;;;;4911280;29;20213;-53
2023/05/14 03:33:59;;;;;;;9.57;8.67;;;11.90;99.90;;;;;;4916820;29;20264;-53
2023/05/14 03:36:26;;;;;;;9.00;8.30;;;11.90;99.90;;;;;;4918615;29;20206;-53
2023/05/14 03:38:54;;;;;;;9.20;8.50;;;11.90;99.90;;;;;;4918617;29;20269;-53
2023/05/14 03:41:21;;;;;;;8.40;7.70;;;11.90;99.90;;;;;;4918434;29;20258;-53
2023/05/14 03:43:48;;;;;;;9.27;8.53;;;11.90;99.90;;;;;;4913821;29;20229;-53
2023/05/14 03:46:15;;;;;;;10.20;8.93;;;11.90;99.90;;;;;;4918469;29;20205;-53
2023/05/14 03:48:42;;;;;;;9.63;8.73;;;11.90;99.90;;;;;;4918505;29;20210;-53
2023/05/14 03:51:09;;;;;;;10.97;9.87;;;11.90;99.90;;;;;;4918402;29;20221;-53
2023/05/14 03:53:36;;;;;;;9.93;8.80;;;11.90;99.90;;;;;;4916496;29;20601;-53
2023/05/14 03:56:05;;;;;;;9.77;8.87;;;11.80;99.90;;;;;;4916806;29;20268;-53
2023/05/14 03:58:32;;;;;;;10.33;9.40;;;11.80;99.90;;;;;;4910938;29;20215;-53
2023/05/14 04:00:59;;;;;;;10.80;9.80;;;11.80;99.90;;;;;;4918268;29;20208;-53
2023/05/14 04:03:26;;;;;;;11.83;10.73;;;11.80;99.90;;;;;;4909271;29;20240;-53
2023/05/14 04:05:53;;;;;;;11.93;10.73;;;11.80;99.90;;;;;;4915114;29;20256;-53
2023/05/14 04:08:20;;;;;;;10.73;9.83;;;11.80;99.90;;;;;;4913343;29;20254;-53
2023/05/14 04:10:47;;;;;;;9.80;8.73;;;11.80;99.90;;;;;;4917821;29;20213;-53
2023/05/14 04:13:16;;;;;;;10.80;9.73;;;11.80;99.90;;;;;;4909340;29;20215;-53
2023/05/14 04:15:43;;;;;;;9.90;9.10;;;11.80;99.90;;;;;;4917959;29;20568;-53
2023/05/14 04:18:10;;;;;;;10.37;9.47;;;11.80;99.90;;;;;;4910637;29;22318;-53
2023/05/14 04:20:37;;;;;;;9.27;8.53;;;11.90;99.90;;;;;;4906795;29;20261;-53
2023/05/14 04:23:04;;;;;;;9.90;9.10;;;11.90;99.90;;;;;;4905608;29;20754;-53
2023/05/14 04:25:31;;;;;;;9.67;8.87;;;12.00;99.90;;;;;;4915949;29;20257;-53
2023/05/14 04:27:58;;;;;;;9.60;8.60;;;12.00;99.90;;;;;;4917420;29;20238;-53
2023/05/14 04:30:26;;;;;;;9.40;8.53;;;12.00;99.90;;;;;;4917585;29;20209;-53
2023/05/14 04:32:53;;;;;;;10.33;9.33;;;12.00;99.90;;;;;;4941966;23;20292;-59
2023/05/14 04:35:21;;;;;;;8.33;7.73;;;12.00;99.90;;;;;;4935686;29;20255;-60
2023/05/14 04:37:48;;;;;;;18.40;15.23;;;12.00;99.90;;;;;;4936278;29;20208;-59
2023/05/14 04:40:15;;;;;;;18.60;14.30;;;12.00;99.90;;;;;;4932261;29;20208;-60
2023/05/14 04:42:42;;;;;;;12.73;11.40;;;12.10;99.90;;;;;;4933278;29;20272;-59
2023/05/14 04:45:12;;;;;;;10.87;9.87;;;12.10;99.90;;;;;;4935875;29;20202;-59
2023/05/14 04:47:43;;;;;;;10.90;9.80;;;12.10;99.90;;;;;;4932449;29;20218;-60
2023/05/14 04:50:11;;;;;;;9.60;8.73;;;12.10;99.90;;;;;;4934560;29;20213;-59
2023/05/14 04:52:38;;;;;;;10.30;9.50;;;12.10;99.90;;;;;;4932124;29;20312;-59
2023/05/14 04:55:06;;;;;;;10.43;9.53;;;12.20;99.90;;;;;;4927896;29;20206;-59
2023/05/14 04:57:42;;;;;;;9.83;9.03;;;12.20;99.90;;;;;;4935691;29;20208;-59
2023/05/14 05:00:10;;;;;;;11.27;10.30;;;12.30;99.90;;;;;;4935587;29;20205;-60
2023/05/14 05:02:40;;;;;;;11.00;10.00;;;12.30;99.90;;;;;;4930633;29;20240;-60
2023/05/14 05:05:07;;;;;;;10.43;9.43;;;12.30;99.90;;;;;;4932289;29;20654;-59
2023/05/14 05:07:36;;;;;;;10.30;9.50;;;12.30;99.90;;;;;;4932546;29;20747;-59
2023/05/14 05:10:04;;;;;;;10.87;10.03;;;12.30;99.90;;;;;;4931789;29;20208;-60
2023/05/14 05:12:31;;;;;;;11.73;10.13;;;12.20;99.90;;;;;;4927259;29;20689;-59
2023/05/14 05:14:58;;;;;;;9.97;9.23;;;12.20;99.90;;;;;;4930920;29;20289;-59
2023/05/14 05:17:25;;;;;;;12.20;11.10;;;12.20;99.90;;;;;;4935155;29;20256;-60
2023/05/14 05:19:54;;;;;;;12.00;10.93;;;12.30;99.90;;;;;;4933521;29;20204;-59
2023/05/14 05:22:21;;;;;;;12.47;11.10;;;12.30;99.90;;;;;;4927477;29;20236;-59
2023/05/14 05:24:48;;;;;;;13.33;11.83;;;12.40;99.90;;;;;;4929269;29;20229;-59
2023/05/14 05:27:15;;;;;;;11.87;10.77;;;12.40;99.90;;;;;;4932118;29;20271;-59
2023/05/14 05:29:44;;;;;;;12.67;11.47;;;12.40;99.90;;;;;;4925408;29;20258;-59
2023/05/14 05:32:11;;;;;;;13.20;11.90;;;12.50;99.90;;;;;;4915721;29;20336;-59
2023/05/14 05:34:38;;;;;;;13.60;12.23;;;12.60;99.90;;;;;;4929359;29;20219;-60
2023/05/14 05:37:11;;;;;;;13.47;12.17;;;12.70;99.90;;;;;;4932005;29;20220;-59
2023/05/14 05:39:38;;;;;;;11.93;10.73;;;12.60;99.90;;;;;;4922990;29;20287;-59
2023/05/14 05:42:06;;;;;;;12.43;11.23;;;12.60;99.90;;;;;;4934781;29;20225;-59
2023/05/14 05:44:34;;;;;;;12.80;11.60;;;12.70;99.90;;;;;;4923673;29;20702;-60
2023/05/14 05:47:01;;;;;;;12.90;11.60;;;12.70;99.90;;;;;;4927688;29;20216;-59
2023/05/14 05:49:28;;;;;;;12.03;10.93;;;12.70;99.90;;;;;;4934106;29;20265;-60
2023/05/14 05:51:55;;;;;;;12.80;11.60;;;12.80;99.90;;;;;;4934721;29;20272;-60
2023/05/14 05:54:24;;;;;;;11.60;10.60;;;12.80;99.90;;;;;;4934310;29;20213;-60
2023/05/14 05:56:51;;;;;;;12.47;11.37;;;12.80;99.90;;;;;;4925559;29;20216;-59
2023/05/14 05:59:18;;;;;;;12.80;11.70;;;12.70;99.90;;;;;;4928918;29;20571;-60
2023/05/14 06:01:46;;;;;;;13.03;11.83;;;12.70;99.90;;;;;;4925745;29;20213;-60
2023/05/14 06:04:13;;;;;;;11.20;10.30;;;12.60;99.90;;;;;;4929166;29;20241;-59
2023/05/14 06:06:41;;;;;;;10.53;9.73;;;12.70;99.90;;;;;;4930137;29;20257;-60
2023/05/14 06:09:08;;;;;;;11.40;10.33;;;12.70;99.90;;;;;;4934141;29;20281;-59
2023/05/14 06:11:37;;;;;;;10.83;9.83;;;12.70;99.90;;;;;;4922697;29;20288;-59
2023/05/14 06:14:04;;;;;;;11.20;10.23;;;12.70;99.90;;;;;;4934005;29;20680;-59
2023/05/14 06:16:31;;;;;;;11.13;10.23;;;12.60;99.90;;;;;;4932146;29;20288;-59
2023/05/14 06:18:58;;;;;;;11.93;10.93;;;12.60;99.90;;;;;;4927734;29;20271;-59
2023/05/14 06:21:25;;;;;;;12.87;11.67;;;12.60;99.90;;;;;;4934158;29;20201;-60
2023/05/14 06:23:52;;;;;;;12.50;11.20;;;12.60;99.90;;;;;;4928658;29;20230;-60
2023/05/14 06:26:19;;;;;;;11.83;10.80;;;12.70;99.90;;;;;;4923714;29;20201;-59
2023/05/14 06:28:48;;;;;;;14.43;13.03;;;12.80;99.90;;;;;;4921363;29;20722;-59
2023/05/14 06:31:15;;;;;;;15.93;12.30;;;12.90;99.90;;;;;;4929448;29;20216;-59
2023/05/14 06:33:42;;;;;;;15.97;14.40;;;13.00;99.90;;;;;;4913287;29;20284;-59
2023/05/14 06:36:10;;;;;;;13.40;11.97;;;13.10;99.90;;;;;;4924959;29;20212;-60
2023/05/14 06:38:37;;;;;;;15.77;14.20;;;13.20;99.90;;;;;;4929566;29;20205;-59
2023/05/14 06:41:04;;;;;;;13.97;12.57;;;13.20;99.90;;;;;;4933668;29;20225;-59
2023/05/14 06:43:32;;;;;;;14.57;13.17;;;13.20;99.90;;;;;;4924838;29;20236;-59
2023/05/14 06:46:00;;;;;;;14.33;13.03;;;13.20;99.90;;;;;;4914713;29;20205;-59
2023/05/14 06:48:28;;;;;;;14.33;12.73;;;13.20;99.90;;;;;;4928859;29;20294;-60
2023/05/14 06:50:55;;;;;;;15.87;13.97;;;13.10;99.90;;;;;;4937760;29;20299;-60
2023/05/14 06:53:23;;;;;;;15.60;14.13;;;13.00;99.90;;;;;;4931862;29;20222;-59
2023/05/14 06:55:50;;;;;;;15.00;13.53;;;13.10;99.90;;;;;;4936535;29;20206;-60
2023/05/14 06:58:17;;;;;;;14.50;13.30;;;13.10;99.90;;;;;;4937648;29;20219;-59
2023/05/14 07:00:53;;;;;;;14.20;12.90;;;13.20;99.90;;;;;;4929036;29;20213;-59
2023/05/14 07:03:22;;;;;;;13.93;12.40;;;13.40;99.90;;;;;;4930771;29;20676;-60
2023/05/14 07:05:49;;;;;;;17.20;13.30;;;13.50;99.90;;;;;;4937756;29;20277;-60
2023/05/14 07:08:16;;;;;;;14.10;12.83;;;13.50;99.90;;;;;;4937590;29;20206;-60
2023/05/14 07:10:45;;;;;;;14.90;13.40;;;13.50;99.90;;;;;;4936519;29;20217;-59
2023/05/14 07:13:12;;;;;;;16.63;14.90;;;13.50;99.90;;;;;;4928659;29;20217;-60
2023/05/14 07:15:39;;;;;;;16.07;14.57;;;13.60;99.90;;;;;;4919584;29;20616;-59
2023/05/14 07:18:06;;;;;;;14.30;12.67;;;13.60;99.90;;;;;;4927295;29;20261;-59
2023/05/14 07:20:35;;;;;;;14.73;13.23;;;13.70;99.90;;;;;;4933185;29;20212;-60
2023/05/14 07:23:02;;;;;;;14.53;13.23;;;13.60;99.90;;;;;;4937776;29;20292;-60
2023/05/14 07:25:29;;;;;;;14.67;13.27;;;13.50;99.90;;;;;;4934097;29;20274;-60
2023/05/14 07:27:56;;;;;;;14.43;13.03;;;13.60;99.90;;;;;;4931520;29;20201;-60
2023/05/14 07:30:23;;;;;;;16.73;15.03;;;13.60;99.90;;;;;;4944407;29;20212;-59
2023/05/14 07:32:50;;;;;;;15.43;14.13;;;13.60;99.90;;;;;;4932327;29;20231;-59
2023/05/14 07:35:17;;;;;;;14.57;13.17;;;13.60;99.90;;;;;;4938238;29;20217;-60
2023/05/14 07:37:45;;;;;;;14.10;12.80;;;13.70;99.90;;;;;;4943997;29;20633;-59
2023/05/14 07:40:13;;;;;;;17.10;14.57;;;13.80;99.90;;;;;;4943121;29;20238;-60
2023/05/14 07:42:40;;;;;;;13.93;12.70;;;13.70;99.90;;;;;;4932270;29;21170;-60
2023/05/14 07:45:08;;;;;;;12.90;11.80;;;13.70;99.90;;;;;;4928838;29;20233;-59
2023/05/14 07:47:39;;;;;;;14.93;13.53;;;13.80;99.90;;;;;;4926519;29;20202;-59
2023/05/14 07:50:07;;;;;;;17.43;14.50;;;13.80;99.90;;;;;;4927108;29;20243;-59
2023/05/14 07:52:37;;;;;;;14.33;12.93;;;13.90;99.90;;;;;;4926749;29;20228;-59
2023/05/14 07:55:07;;;;;;;14.47;13.17;;;13.80;99.90;;;;;;4926542;29;20608;-60
2023/05/14 07:57:37;;;;;;;14.03;12.77;;;13.70;99.90;;;;;;4927664;29;20216;-59
2023/05/14 08:00:07;;;;;;;14.43;13.13;;;13.70;99.90;;;;;;4927520;29;20210;-60
2023/05/14 08:02:37;;;;;;;14.00;12.67;;;13.60;99.90;;;;;;4927443;29;20228;-59
2023/05/14 08:05:04;;;;;;;13.77;12.47;;;13.70;99.90;;;;;;4926112;29;20218;-60
2023/05/14 08:07:32;;;;;;;14.67;12.27;;;13.80;99.90;;;;;;4931087;29;20356;-59
2023/05/14 08:09:59;;;;;;;13.13;11.93;;;13.90;99.90;;;;;;4937463;29;20275;-59
2023/05/14 08:12:28;;;;;;;14.03;12.60;;;14.00;99.90;;;;;;4924752;29;20234;-60
2023/05/14 08:14:55;;;;;;;12.30;11.20;;;14.00;99.90;;;;;;4924084;29;20669;-59
2023/05/14 08:17:22;;;;;;;12.77;11.57;;;14.10;99.90;;;;;;4926580;29;20231;-59
2023/05/14 08:19:49;;;;;;;12.83;11.70;;;14.10;99.90;;;;;;4928006;29;20273;-59
2023/05/14 08:22:16;;;;;;;11.90;10.77;;;14.30;99.90;;;;;;4926091;29;20229;-59
2023/05/14 08:24:44;;;;;;;12.47;11.37;;;14.30;99.90;;;;;;4933621;29;20230;-59
2023/05/14 08:27:11;;;;;;;12.47;11.37;;;14.40;99.90;;;;;;4931119;29;20573;-60
2023/05/14 08:29:40;;;;;;;12.67;11.57;;;14.40;99.90;;;;;;4917035;29;20285;-59
2023/05/14 08:32:09;;;;;;;15.03;13.53;;;14.30;99.90;;;;;;4918966;29;20237;-58
2023/05/14 08:34:36;;;;;;;12.80;11.60;;;14.30;99.90;;;;;;4924806;29;20497;-59
2023/05/14 08:37:03;;;;;;;13.00;11.67;;;14.50;99.90;;;;;;4925443;29;20350;-60
2023/05/14 08:39:30;;;;;;;11.43;10.43;;;14.70;99.90;;;;;;4917266;29;20203;-59
2023/05/14 08:42:00;;;;;;;11.17;10.17;;;14.90;99.90;;;;;;4917203;29;20265;-60
2023/05/14 08:44:38;;;;;;;10.70;9.70;;;15.00;99.90;;;;;;4916351;29;20341;-59
2023/05/14 08:47:07;;;;;;;11.97;10.87;;;15.30;99.90;;;;;;4932883;29;20261;-59
2023/05/14 08:49:40;;;;;;;13.10;11.33;;;15.70;99.90;;;;;;4928987;29;20230;-63
2023/05/14 08:52:09;;;;;;;10.57;9.67;;;16.00;99.90;;;;;;4919294;29;20272;-67
2023/05/14 08:54:36;;;;;;;11.80;9.90;;;16.40;99.90;;;;;;4929544;29;20205;-67
2023/05/14 08:57:04;;;;;;;12.37;11.17;;;16.80;99.90;;;;;;4915522;29;20202;-68
2023/05/14 08:59:31;;;;;;;10.40;9.57;;;17.00;99.90;;;;;;4923473;29;20206;-70
2023/05/14 09:02:02;;;;;;;10.60;9.80;;;17.20;99.90;;;;;;4924046;29;20233;-70
2023/05/14 09:04:31;;;;;;;11.13;10.13;;;17.50;99.90;;;;;;4928725;29;20703;-67
2023/05/14 09:07:00;;;;;;;9.73;8.93;;;17.50;99.90;;;;;;4915988;29;20218;-71
2023/05/14 09:09:28;;;;;;;11.77;10.77;;;17.40;99.90;;;;;;4915764;29;20202;-69
2023/05/14 09:11:55;;;;;;;11.77;10.67;;;17.60;99.90;;;;;;4922837;29;20202;-71
2023/05/14 09:14:23;;;;;;;11.43;10.53;;;17.40;99.90;;;;;;4918834;29;20199;-67
2023/05/14 09:16:51;;;;;;;12.50;11.40;;;17.10;99.90;;;;;;4923682;29;20283;-69
2023/05/14 09:19:19;;;;;;;10.33;9.50;;;17.50;99.90;;;;;;4920924;29;20629;-68
2023/05/14 09:21:48;;;;;;;10.20;9.33;;;17.70;99.90;;;;;;4931388;29;20206;-67
2023/05/14 09:24:20;;;;;;;11.10;10.20;;;18.00;99.90;;;;;;4930888;29;20221;-71
2023/05/14 09:26:50;;;;;;;9.83;8.97;;;18.10;99.90;;;;;;4931552;29;20241;-71
2023/05/14 09:29:17;;;;;;;8.80;8.10;;;17.90;99.90;;;;;;4917200;29;20294;-66
2023/05/14 09:31:44;;;;;;;6.67;6.17;;;17.50;99.90;;;;;;4923110;29;20214;-67
2023/05/14 09:34:12;;;;;;;6.97;6.37;;;17.60;99.90;;;;;;4924094;29;20254;-68
2023/05/14 09:36:39;;;;;;;7.40;6.90;;;17.80;99.90;;;;;;4927110;29;20296;-67
2023/05/14 09:39:07;;;;;;;6.47;6.17;;;17.60;99.90;;;;;;4921751;29;20207;-66
2023/05/14 09:41:36;;;;;;;4.37;4.17;;;17.30;99.90;;;;;;4930275;29;20640;-70
2023/05/14 09:44:03;;;;;;;4.77;4.47;;;17.10;99.90;;;;;;4926070;29;20223;-68
2023/05/14 09:46:30;;;;;;;3.87;3.67;;;16.90;99.90;;;;;;4926919;29;20754;-65
2023/05/14 09:48:58;;;;;;;2.80;2.70;;;16.90;99.90;;;;;;4920652;29;20202;-67
2023/05/14 09:51:25;;;;;;;2.73;2.63;;;16.90;99.90;;;;;;4927574;29;20209;-70
2023/05/14 09:53:55;;;;;;;3.57;3.27;;;16.90;99.90;;;;;;4927328;29;20226;-70
2023/05/14 09:56:23;;;;;;;4.33;4.13;;;16.80;99.90;;;;;;4928422;29;20216;-60
2023/05/14 09:58:50;;;;;;;4.40;4.13;;;16.70;99.90;;;;;;4924050;29;20924;-67
2023/05/14 10:01:19;;;;;;;3.83;3.63;;;16.90;99.90;;;;;;4931850;29;20248;-65
2023/05/14 10:03:47;;;;;;;3.33;3.17;;;17.10;99.90;;;;;;4925717;29;20337;-57
2023/05/14 10:06:16;;;;;;;4.63;4.43;;;17.30;99.90;;;;;;4925834;29;20621;-57
2023/05/14 10:08:45;;;;;;;5.10;4.77;;;17.70;99.90;;;;;;4918572;29;20218;-67
2023/05/14 10:11:14;;;;;;;10.43;5.77;;;17.80;99.90;;;;;;4927233;29;20202;-59
2023/05/14 10:13:50;;;;;;;7.00;6.40;;;17.60;99.90;;;;;;4925894;29;20234;-68
2023/05/14 10:16:23;;;;;;;7.03;6.40;;;17.20;99.90;;;;;;4933900;29;20193;-69
2023/05/14 10:18:54;;;;;;;7.60;6.97;;;17.30;99.90;;;;;;4921991;29;20682;-68
2023/05/14 10:21:22;;;;;;;8.77;8.07;;;17.70;99.90;;;;;;4920496;29;20234;-69
2023/05/14 10:23:50;;;;;;;9.80;9.00;;;17.80;99.90;;;;;;4921439;29;20218;-66
2023/05/14 10:26:17;;;;;;;10.53;9.53;;;17.60;99.90;;;;;;4922404;29;20226;-58
2023/05/14 10:28:46;;;;;;;9.83;8.83;;;17.30;99.90;;;;;;4930590;29;20261;-59
2023/05/14 10:31:14;;;;;;;9.53;8.63;;;17.10;99.90;;;;;;4925835;29;20206;-59
2023/05/14 10:33:49;;;;;;;9.73;8.87;;;16.90;99.90;;;;;;4920733;29;20679;-59
2023/05/14 10:36:17;;;;;;;10.60;9.60;;;16.90;99.90;;;;;;4921530;29;20194;-60
2023/05/14 10:38:44;;;;;;;12.47;11.03;;;16.90;99.90;;;;;;4931695;29;20206;-60
2023/05/14 10:41:13;;;;;;;10.87;9.77;;;17.20;99.90;;;;;;4920628;29;20206;-58
2023/05/14 10:43:41;;;;;;;9.57;8.77;;;17.30;99.90;;;;;;4926232;23;20326;-54
2023/05/14 10:46:11;;;;;;;9.17;8.30;;;17.40;99.90;;;;;;4907889;29;20275;-54
2023/05/14 10:48:41;;;;;;;10.52;9.63;;;17.80;99.90;;;;;;4908136;29;20604;-58
2023/05/14 10:51:10;;;;;;;10.27;9.30;;;18.20;99.90;;;;;;4899701;29;20581;-58
2023/05/14 10:53:38;;;;;;;7.13;6.53;;;18.20;99.90;;;;;;4906668;29;20225;-59
2023/05/14 10:56:07;;;;;;;7.13;6.50;;;17.90;99.90;;;;;;4910717;29;20198;-59
2023/05/14 10:58:37;;;;;;;7.73;7.03;;;18.30;99.90;;;;;;4908164;29;20203;-58
2023/05/14 11:01:06;;;;;;;9.80;8.90;;;19.00;99.90;;;;;;4911066;29;20294;-58
2023/05/14 11:03:40;;;;;;;9.33;8.53;;;18.50;99.90;;;;;;4908745;29;20231;-58
2023/05/14 11:06:08;;;;;;;9.70;8.57;;;18.30;99.90;;;;;;4911559;29;20663;-59
2023/05/14 11:08:35;;;;;;;11.33;9.50;;;17.70;99.90;;;;;;4911131;29;20664;-58
2023/05/14 11:11:02;;;;;;;10.27;9.27;;;17.50;99.90;;;;;;4911355;29;20649;-58
2023/05/14 11:13:30;;;;;;;9.53;8.63;;;17.10;99.90;;;;;;4907726;29;20238;-58
2023/05/14 11:15:57;;;;;;;11.10;9.97;;;16.80;99.90;;;;;;4899978;29;20251;-58
2023/05/14 11:18:28;;;;;;;13.70;10.57;;;16.40;99.90;;;;;;4913992;29;20207;-59
2023/05/14 11:20:59;;;;;;;11.40;10.30;;;15.70;99.90;;;;;;4906953;29;20681;-61
2023/05/14 11:23:28;;;;;;;10.53;9.53;;;15.40;99.90;;;;;;4911679;29;20226;-61
2023/05/14 11:25:56;;;;;;;10.53;9.43;;;15.40;99.90;;;;;;4892289;29;20227;-60
2023/05/14 11:28:25;;;;;;;10.97;9.87;;;15.10;99.90;;;;;;4893544;29;20203;-59
2023/05/14 11:30:53;;;;;;;12.33;9.80;;;15.10;99.90;;;;;;4894363;29;20207;-52
2023/05/14 11:33:20;;;;;;;14.50;11.10;;;14.90;99.90;;;;;;4895710;29;20295;-53
2023/05/14 11:35:48;;;;;;;13.83;12.47;;;14.80;99.90;;;;;;4896449;29;20290;-53
2023/05/14 11:38:17;;;;;;;13.87;12.23;;;14.40;99.90;;;;;;4898046;29;20203;-53
2023/05/14 11:40:51;;;;;;;12.67;11.43;;;14.30;99.90;;;;;;4902324;29;20276;-53
2023/05/14 11:43:18;;;;;;;12.80;11.13;;;14.20;99.90;;;;;;4917555;29;20734;-53
2023/05/14 11:45:49;;;;;;;15.00;11.70;;;14.30;99.90;;;;;;4916409;29;20222;-53
2023/05/14 11:48:17;;;;;;;16.13;12.10;;;14.30;99.90;;;;;;4906828;29;20198;-53
2023/05/14 11:50:46;;;;;;;15.90;14.17;;;14.40;99.90;;;;;;4908804;29;20258;-53
2023/05/14 11:53:18;;;;;;;16.67;13.83;;;14.40;99.90;;;;;;4917863;29;20237;-52
2023/05/14 11:55:48;;;;;;;15.03;12.57;;;14.30;99.90;;;;;;4925640;29;20206;-53
2023/05/14 11:58:15;;;;;;;12.37;11.17;;;14.30;99.90;;;;;;4925864;29;20625;-52
2023/05/14 12:00:44;;;;;;;13.83;11.77;;;14.30;99.90;;;;;;4918018;29;20207;-57
2023/05/14 12:03:11;;;;;;;16.87;12.77;;;14.20;99.90;;;;;;4915267;29;20861;-60
2023/05/14 12:05:39;;;;;;;14.30;12.27;;;14.10;99.90;;;;;;4911981;29;20231;-61
2023/05/14 12:08:21;;;;;;;15.00;12.57;;;14.00;99.90;;;;;;4903411;29;20254;-59
2023/05/14 12:10:48;;;;;;;15.73;12.40;;;13.90;99.90;;;;;;4913406;29;20205;-60
2023/05/14 12:13:16;;;;;;;12.40;11.20;;;13.70;99.90;;;;;;4910440;29;20318;-59
2023/05/14 12:15:46;;;;;;;10.67;9.57;;;13.50;99.90;;;;;;4907898;29;20209;-61
2023/05/14 12:18:13;;;;;;;10.83;9.73;;;13.50;99.90;;;;;;4897588;29;20234;-60
2023/05/14 12:20:45;;;;;;;10.23;9.27;;;13.60;99.90;;;;;;4894854;29;20199;-60
2023/05/14 12:23:13;;;;;;;9.10;7.63;;;13.60;99.90;;;;;;4897676;29;20649;-60
2023/05/14 12:25:49;;;;;;;9.83;8.60;;;13.70;99.90;;;;;;4895592;29;20312;-60
2023/05/14 12:28:16;;;;;;;8.63;7.93;;;13.80;99.90;;;;;;4895592;29;20205;-61
2023/05/14 12:30:43;;;;;;;7.93;7.20;;;13.80;99.90;;;;;;4896265;29;20218;-61
2023/05/14 12:33:11;;;;;;;6.23;5.80;;;13.80;99.90;;;;;;4896576;29;20298;-62
2023/05/14 12:35:37;;;;;;;7.17;5.57;;;13.90;99.90;;;;;;4894330;29;20258;-58
2023/05/14 12:38:04;;;;;;;6.10;5.07;;;14.00;99.90;;;;;;4897495;29;20282;-60
2023/05/14 12:40:31;;;;;;;6.17;5.67;;;14.10;99.90;;;;;;4906009;29;20245;-60
2023/05/14 12:43:00;;;;;;;6.27;5.73;;;14.30;99.90;;;;;;4896332;29;20753;-61